sensor_id;sensor_type;location;lat;lon;timestamp;P1;durP1;ratioP1;P2;durP2;ratioP2
2049;SDS011;8478;49.208;8.806;2022-08-19T00:01:10;14.87;;;13.77;;
2049;SDS011;8478;49.208;8.806;2022-08-19T00:03:36;15.30;;;14.00;;
2049;SDS011;8478;49.208;8.806;2022-08-19T00:06:02;15.57;;;14.37;;
2049;SDS011;8478;49.208;8.806;2022-08-19T00:08:28;14.57;;;13.47;;
2049;SDS011;8478;49.208;8.806;2022-08-19T00:10:54;14.87;;;13.77;;
2049;SDS011;8478;49.208;8.806;2022-08-19T00:13:20;12.73;;;11.83;;
2049;SDS011;8478;49.208;8.806;2022-08-19T00:15:45;14.77;;;13.57;;
2049;SDS011;8478;49.208;8.806;2022-08-19T00:18:11;13.40;;;12.40;;
2049;SDS011;8478;49.208;8.806;2022-08-19T00:20:36;15.00;;;13.73;;
2049;SDS011;8478;49.208;8.806;2022-08-19T00:23:05;14.30;;;13.20;;
2049;SDS011;8478;49.208;8.806;2022-08-19T00:25:31;14.00;;;12.90;;
2049;SDS011;8478;49.208;8.806;2022-08-19T00:27:58;14.27;;;13.27;;
2049;SDS011;8478;49.208;8.806;2022-08-19T00:30:24;15.80;;;14.60;;
2049;SDS011;8478;49.208;8.806;2022-08-19T00:32:52;15.17;;;14.00;;
2049;SDS011;8478;49.208;8.806;2022-08-19T00:35:20;13.03;;;12.03;;
2049;SDS011;8478;49.208;8.806;2022-08-19T00:37:47;14.07;;;13.00;;
2049;SDS011;8478;49.208;8.806;2022-08-19T00:40:13;14.73;;;13.63;;
2049;SDS011;8478;49.208;8.806;2022-08-19T00:42:40;15.60;;;14.40;;
2049;SDS011;8478;49.208;8.806;2022-08-19T00:45:14;14.87;;;13.63;;
2049;SDS011;8478;49.208;8.806;2022-08-19T00:47:43;14.50;;;13.40;;
2049;SDS011;8478;49.208;8.806;2022-08-19T00:50:10;15.00;;;13.80;;
2049;SDS011;8478;49.208;8.806;2022-08-19T00:52:42;14.10;;;13.00;;
2049;SDS011;8478;49.208;8.806;2022-08-19T00:55:18;14.73;;;13.63;;
2049;SDS011;8478;49.208;8.806;2022-08-19T00:57:48;15.40;;;14.23;;
2049;SDS011;8478;49.208;8.806;2022-08-19T01:00:19;13.40;;;12.30;;
2049;SDS011;8478;49.208;8.806;2022-08-19T01:02:46;13.77;;;12.73;;
2049;SDS011;8478;49.208;8.806;2022-08-19T01:05:16;14.13;;;13.03;;
2049;SDS011;8478;49.208;8.806;2022-08-19T01:07:45;14.60;;;13.40;;
2049;SDS011;8478;49.208;8.806;2022-08-19T01:10:14;14.53;;;13.33;;
2049;SDS011;8478;49.208;8.806;2022-08-19T01:12:43;14.27;;;13.27;;
2049;SDS011;8478;49.208;8.806;2022-08-19T01:15:11;14.87;;;13.77;;
2049;SDS011;8478;49.208;8.806;2022-08-19T01:17:40;14.53;;;13.43;;
2049;SDS011;8478;49.208;8.806;2022-08-19T01:20:18;14.13;;;13.03;;
2049;SDS011;8478;49.208;8.806;2022-08-19T01:22:47;13.83;;;12.73;;
2049;SDS011;8478;49.208;8.806;2022-08-19T01:25:16;14.80;;;13.60;;
2049;SDS011;8478;49.208;8.806;2022-08-19T01:27:45;14.43;;;13.33;;
2049;SDS011;8478;49.208;8.806;2022-08-19T01:30:14;14.27;;;13.17;;
2049;SDS011;8478;49.208;8.806;2022-08-19T01:32:43;15.00;;;13.80;;
2049;SDS011;8478;49.208;8.806;2022-08-19T01:35:09;14.07;;;12.97;;
2049;SDS011;8478;49.208;8.806;2022-08-19T01:37:44;15.10;;;14.00;;
2049;SDS011;8478;49.208;8.806;2022-08-19T01:40:21;15.30;;;14.10;;
2049;SDS011;8478;49.208;8.806;2022-08-19T01:42:50;14.87;;;13.67;;
2049;SDS011;8478;49.208;8.806;2022-08-19T01:45:18;15.23;;;14.03;;
2049;SDS011;8478;49.208;8.806;2022-08-19T01:47:44;14.60;;;13.50;;
2049;SDS011;8478;49.208;8.806;2022-08-19T01:50:10;15.60;;;14.30;;
2049;SDS011;8478;49.208;8.806;2022-08-19T01:52:38;14.43;;;13.33;;
2049;SDS011;8478;49.208;8.806;2022-08-19T01:55:06;15.37;;;14.10;;
2049;SDS011;8478;49.208;8.806;2022-08-19T01:57:34;16.00;;;14.60;;
2049;SDS011;8478;49.208;8.806;2022-08-19T02:00:00;16.00;;;14.70;;
2049;SDS011;8478;49.208;8.806;2022-08-19T02:02:27;15.27;;;13.97;;
2049;SDS011;8478;49.208;8.806;2022-08-19T02:04:53;15.43;;;14.23;;
2049;SDS011;8478;49.208;8.806;2022-08-19T02:07:19;16.20;;;14.80;;
2049;SDS011;8478;49.208;8.806;2022-08-19T02:09:46;15.03;;;13.67;;
2049;SDS011;8478;49.208;8.806;2022-08-19T02:12:13;16.43;;;15.17;;
2049;SDS011;8478;49.208;8.806;2022-08-19T02:14:39;15.50;;;14.20;;
2049;SDS011;8478;49.208;8.806;2022-08-19T02:17:05;16.63;;;15.43;;
2049;SDS011;8478;49.208;8.806;2022-08-19T02:19:31;17.03;;;15.63;;
2049;SDS011;8478;49.208;8.806;2022-08-19T02:21:58;17.30;;;15.77;;
2049;SDS011;8478;49.208;8.806;2022-08-19T02:24:24;16.17;;;14.70;;
2049;SDS011;8478;49.208;8.806;2022-08-19T02:26:52;18.00;;;16.60;;
2049;SDS011;8478;49.208;8.806;2022-08-19T02:29:18;17.37;;;15.83;;
2049;SDS011;8478;49.208;8.806;2022-08-19T02:31:44;17.47;;;16.07;;
2049;SDS011;8478;49.208;8.806;2022-08-19T02:34:10;17.87;;;16.40;;
2049;SDS011;8478;49.208;8.806;2022-08-19T02:36:35;17.47;;;16.20;;
2049;SDS011;8478;49.208;8.806;2022-08-19T02:39:01;17.93;;;16.50;;
2049;SDS011;8478;49.208;8.806;2022-08-19T02:41:28;16.40;;;15.00;;
2049;SDS011;8478;49.208;8.806;2022-08-19T02:43:56;17.63;;;16.23;;
2049;SDS011;8478;49.208;8.806;2022-08-19T02:46:24;19.10;;;17.50;;
2049;SDS011;8478;49.208;8.806;2022-08-19T02:48:53;18.50;;;16.90;;
2049;SDS011;8478;49.208;8.806;2022-08-19T02:51:22;17.70;;;16.20;;
2049;SDS011;8478;49.208;8.806;2022-08-19T02:53:49;17.33;;;16.03;;
2049;SDS011;8478;49.208;8.806;2022-08-19T02:56:15;17.43;;;15.93;;
2049;SDS011;8478;49.208;8.806;2022-08-19T02:58:41;18.63;;;17.03;;
2049;SDS011;8478;49.208;8.806;2022-08-19T03:01:08;18.03;;;16.73;;
2049;SDS011;8478;49.208;8.806;2022-08-19T03:03:33;18.77;;;17.27;;
2049;SDS011;8478;49.208;8.806;2022-08-19T03:06:07;18.97;;;17.47;;
2049;SDS011;8478;49.208;8.806;2022-08-19T03:08:38;17.97;;;16.50;;
2049;SDS011;8478;49.208;8.806;2022-08-19T03:11:05;19.73;;;18.03;;
2049;SDS011;8478;49.208;8.806;2022-08-19T03:13:31;18.30;;;16.90;;
2049;SDS011;8478;49.208;8.806;2022-08-19T03:15:57;19.30;;;17.70;;
2049;SDS011;8478;49.208;8.806;2022-08-19T03:18:22;18.40;;;16.90;;
2049;SDS011;8478;49.208;8.806;2022-08-19T03:20:49;19.40;;;17.70;;
2049;SDS011;8478;49.208;8.806;2022-08-19T03:23:17;19.87;;;18.27;;
2049;SDS011;8478;49.208;8.806;2022-08-19T03:25:45;19.50;;;17.90;;
2049;SDS011;8478;49.208;8.806;2022-08-19T03:28:13;18.37;;;16.87;;
2049;SDS011;8478;49.208;8.806;2022-08-19T03:30:41;18.90;;;17.43;;
2049;SDS011;8478;49.208;8.806;2022-08-19T03:33:08;20.07;;;18.40;;
2049;SDS011;8478;49.208;8.806;2022-08-19T03:35:35;19.73;;;18.20;;
2049;SDS011;8478;49.208;8.806;2022-08-19T03:38:04;19.07;;;17.37;;
2049;SDS011;8478;49.208;8.806;2022-08-19T03:40:31;18.73;;;17.23;;
2049;SDS011;8478;49.208;8.806;2022-08-19T03:42:57;19.30;;;17.80;;
2049;SDS011;8478;49.208;8.806;2022-08-19T03:45:23;18.07;;;16.67;;
2049;SDS011;8478;49.208;8.806;2022-08-19T03:47:49;18.07;;;16.57;;
2049;SDS011;8478;49.208;8.806;2022-08-19T03:50:15;17.50;;;16.17;;
2049;SDS011;8478;49.208;8.806;2022-08-19T03:52:41;19.20;;;17.67;;
2049;SDS011;8478;49.208;8.806;2022-08-19T03:55:07;17.20;;;15.87;;
2049;SDS011;8478;49.208;8.806;2022-08-19T03:57:33;18.23;;;16.83;;
2049;SDS011;8478;49.208;8.806;2022-08-19T03:59:59;18.23;;;16.80;;
2049;SDS011;8478;49.208;8.806;2022-08-19T04:02:26;18.30;;;16.90;;
2049;SDS011;8478;49.208;8.806;2022-08-19T04:04:52;17.93;;;16.60;;
2049;SDS011;8478;49.208;8.806;2022-08-19T04:07:19;18.50;;;17.10;;
2049;SDS011;8478;49.208;8.806;2022-08-19T04:09:46;17.70;;;16.40;;
2049;SDS011;8478;49.208;8.806;2022-08-19T04:12:12;18.40;;;17.00;;
2049;SDS011;8478;49.208;8.806;2022-08-19T04:14:38;18.57;;;17.20;;
2049;SDS011;8478;49.208;8.806;2022-08-19T04:17:04;18.93;;;17.30;;
2049;SDS011;8478;49.208;8.806;2022-08-19T04:19:32;18.47;;;16.97;;
2049;SDS011;8478;49.208;8.806;2022-08-19T04:21:59;20.33;;;18.73;;
2049;SDS011;8478;49.208;8.806;2022-08-19T04:24:25;19.83;;;18.23;;
2049;SDS011;8478;49.208;8.806;2022-08-19T04:26:51;19.87;;;18.27;;
2049;SDS011;8478;49.208;8.806;2022-08-19T04:29:20;19.40;;;17.90;;
2049;SDS011;8478;49.208;8.806;2022-08-19T04:31:50;19.20;;;17.70;;
2049;SDS011;8478;49.208;8.806;2022-08-19T04:34:17;18.33;;;17.00;;
2049;SDS011;8478;49.208;8.806;2022-08-19T04:36:49;20.00;;;18.30;;
2049;SDS011;8478;49.208;8.806;2022-08-19T04:39:18;19.97;;;18.47;;
2049;SDS011;8478;49.208;8.806;2022-08-19T04:41:46;19.17;;;17.57;;
2049;SDS011;8478;49.208;8.806;2022-08-19T04:44:30;19.93;;;18.33;;
2049;SDS011;8478;49.208;8.806;2022-08-19T04:46:57;19.47;;;18.07;;
2049;SDS011;8478;49.208;8.806;2022-08-19T04:49:23;20.30;;;18.60;;
2049;SDS011;8478;49.208;8.806;2022-08-19T04:51:51;19.87;;;18.37;;
2049;SDS011;8478;49.208;8.806;2022-08-19T04:54:19;19.87;;;18.27;;
2049;SDS011;8478;49.208;8.806;2022-08-19T04:56:50;20.23;;;18.53;;
2049;SDS011;8478;49.208;8.806;2022-08-19T04:59:18;19.63;;;18.00;;
2049;SDS011;8478;49.208;8.806;2022-08-19T05:01:45;19.70;;;18.20;;
2049;SDS011;8478;49.208;8.806;2022-08-19T05:04:15;19.90;;;18.40;;
2049;SDS011;8478;49.208;8.806;2022-08-19T05:06:42;19.40;;;17.90;;
2049;SDS011;8478;49.208;8.806;2022-08-19T05:09:08;20.93;;;19.23;;
2049;SDS011;8478;49.208;8.806;2022-08-19T05:11:36;19.67;;;18.17;;
2049;SDS011;8478;49.208;8.806;2022-08-19T05:14:06;21.10;;;19.40;;
2049;SDS011;8478;49.208;8.806;2022-08-19T05:16:32;19.33;;;17.83;;
2049;SDS011;8478;49.208;8.806;2022-08-19T05:18:58;19.50;;;17.90;;
2049;SDS011;8478;49.208;8.806;2022-08-19T05:21:43;20.90;;;19.30;;
2049;SDS011;8478;49.208;8.806;2022-08-19T05:24:28;20.50;;;18.80;;
2049;SDS011;8478;49.208;8.806;2022-08-19T05:26:54;19.63;;;18.03;;
2049;SDS011;8478;49.208;8.806;2022-08-19T05:29:22;20.33;;;18.77;;
2049;SDS011;8478;49.208;8.806;2022-08-19T05:31:51;19.17;;;17.70;;
2049;SDS011;8478;49.208;8.806;2022-08-19T05:34:18;22.27;;;20.50;;
2049;SDS011;8478;49.208;8.806;2022-08-19T05:36:49;20.17;;;18.40;;
2049;SDS011;8478;49.208;8.806;2022-08-19T05:39:17;20.77;;;19.07;;
2049;SDS011;8478;49.208;8.806;2022-08-19T05:41:49;20.07;;;18.30;;
2049;SDS011;8478;49.208;8.806;2022-08-19T05:44:24;21.03;;;19.23;;
2049;SDS011;8478;49.208;8.806;2022-08-19T05:46:51;21.03;;;19.23;;
2049;SDS011;8478;49.208;8.806;2022-08-19T05:49:18;19.73;;;18.10;;
2049;SDS011;8478;49.208;8.806;2022-08-19T05:51:46;20.57;;;18.87;;
2049;SDS011;8478;49.208;8.806;2022-08-19T05:54:12;17.70;;;16.40;;
2049;SDS011;8478;49.208;8.806;2022-08-19T05:56:39;19.13;;;17.73;;
2049;SDS011;8478;49.208;8.806;2022-08-19T05:59:06;21.47;;;19.80;;
2049;SDS011;8478;49.208;8.806;2022-08-19T06:01:34;19.20;;;17.80;;
2049;SDS011;8478;49.208;8.806;2022-08-19T06:04:02;19.83;;;18.33;;
2049;SDS011;8478;49.208;8.806;2022-08-19T06:06:28;19.87;;;18.37;;
2049;SDS011;8478;49.208;8.806;2022-08-19T06:08:54;19.00;;;17.50;;
2049;SDS011;8478;49.208;8.806;2022-08-19T06:11:24;19.00;;;17.50;;
2049;SDS011;8478;49.208;8.806;2022-08-19T06:14:01;21.10;;;19.30;;
2049;SDS011;8478;49.208;8.806;2022-08-19T06:16:32;20.83;;;19.03;;
2049;SDS011;8478;49.208;8.806;2022-08-19T06:19:00;19.70;;;18.10;;
2049;SDS011;8478;49.208;8.806;2022-08-19T06:21:28;20.53;;;18.70;;
2049;SDS011;8478;49.208;8.806;2022-08-19T06:23:55;18.63;;;17.20;;
2049;SDS011;8478;49.208;8.806;2022-08-19T06:26:21;18.10;;;16.80;;
2049;SDS011;8478;49.208;8.806;2022-08-19T06:28:48;18.73;;;17.00;;
2049;SDS011;8478;49.208;8.806;2022-08-19T06:31:18;19.17;;;17.77;;
2049;SDS011;8478;49.208;8.806;2022-08-19T06:33:46;19.30;;;17.70;;
2049;SDS011;8478;49.208;8.806;2022-08-19T06:36:20;19.70;;;18.10;;
2049;SDS011;8478;49.208;8.806;2022-08-19T06:38:52;17.97;;;16.57;;
2049;SDS011;8478;49.208;8.806;2022-08-19T06:41:18;21.53;;;19.73;;
2049;SDS011;8478;49.208;8.806;2022-08-19T06:43:44;19.10;;;17.70;;
2049;SDS011;8478;49.208;8.806;2022-08-19T06:46:15;18.67;;;17.17;;
2049;SDS011;8478;49.208;8.806;2022-08-19T06:48:42;17.70;;;16.40;;
2049;SDS011;8478;49.208;8.806;2022-08-19T06:51:08;18.80;;;17.40;;
2049;SDS011;8478;49.208;8.806;2022-08-19T06:53:34;18.00;;;16.40;;
2049;SDS011;8478;49.208;8.806;2022-08-19T06:56:00;16.80;;;15.70;;
2049;SDS011;8478;49.208;8.806;2022-08-19T06:58:27;18.40;;;17.00;;
2049;SDS011;8478;49.208;8.806;2022-08-19T07:00:57;18.90;;;17.40;;
2049;SDS011;8478;49.208;8.806;2022-08-19T07:03:30;18.20;;;16.80;;
2049;SDS011;8478;49.208;8.806;2022-08-19T07:06:02;18.60;;;17.10;;
2049;SDS011;8478;49.208;8.806;2022-08-19T07:08:29;17.90;;;16.40;;
2049;SDS011;8478;49.208;8.806;2022-08-19T07:10:55;18.63;;;17.03;;
2049;SDS011;8478;49.208;8.806;2022-08-19T07:13:21;18.70;;;17.20;;
2049;SDS011;8478;49.208;8.806;2022-08-19T07:15:47;18.10;;;16.77;;
2049;SDS011;8478;49.208;8.806;2022-08-19T07:18:16;20.03;;;18.13;;
2049;SDS011;8478;49.208;8.806;2022-08-19T07:20:45;18.63;;;17.23;;
2049;SDS011;8478;49.208;8.806;2022-08-19T07:23:11;19.03;;;17.33;;
2049;SDS011;8478;49.208;8.806;2022-08-19T07:25:37;18.10;;;16.80;;
2049;SDS011;8478;49.208;8.806;2022-08-19T07:28:04;19.37;;;17.87;;
2049;SDS011;8478;49.208;8.806;2022-08-19T07:30:30;17.30;;;15.87;;
2049;SDS011;8478;49.208;8.806;2022-08-19T07:32:56;18.03;;;16.53;;
2049;SDS011;8478;49.208;8.806;2022-08-19T07:35:22;17.90;;;16.60;;
2049;SDS011;8478;49.208;8.806;2022-08-19T07:37:48;17.07;;;15.67;;
2049;SDS011;8478;49.208;8.806;2022-08-19T07:40:14;18.40;;;16.73;;
2049;SDS011;8478;49.208;8.806;2022-08-19T07:42:40;17.37;;;16.07;;
2049;SDS011;8478;49.208;8.806;2022-08-19T07:45:07;17.67;;;16.37;;
2049;SDS011;8478;49.208;8.806;2022-08-19T07:47:34;17.57;;;16.10;;
2049;SDS011;8478;49.208;8.806;2022-08-19T07:50:00;16.97;;;15.47;;
2049;SDS011;8478;49.208;8.806;2022-08-19T07:52:25;17.37;;;15.97;;
2049;SDS011;8478;49.208;8.806;2022-08-19T07:54:51;17.03;;;15.63;;
2049;SDS011;8478;49.208;8.806;2022-08-19T07:57:17;16.70;;;15.20;;
2049;SDS011;8478;49.208;8.806;2022-08-19T07:59:44;18.37;;;16.87;;
2049;SDS011;8478;49.208;8.806;2022-08-19T08:02:10;16.50;;;15.30;;
2049;SDS011;8478;49.208;8.806;2022-08-19T08:04:35;15.73;;;14.50;;
2049;SDS011;8478;49.208;8.806;2022-08-19T08:07:20;15.83;;;14.53;;
2049;SDS011;8478;49.208;8.806;2022-08-19T08:10:05;15.57;;;14.47;;
2049;SDS011;8478;49.208;8.806;2022-08-19T08:12:33;14.80;;;13.67;;
2049;SDS011;8478;49.208;8.806;2022-08-19T08:15:09;15.43;;;14.33;;
2049;SDS011;8478;49.208;8.806;2022-08-19T08:17:41;14.93;;;13.67;;
2049;SDS011;8478;49.208;8.806;2022-08-19T08:20:08;15.70;;;14.60;;
2049;SDS011;8478;49.208;8.806;2022-08-19T08:22:34;15.20;;;14.10;;
2049;SDS011;8478;49.208;8.806;2022-08-19T08:25:19;15.27;;;14.00;;
2049;SDS011;8478;49.208;8.806;2022-08-19T08:27:47;16.67;;;15.27;;
2049;SDS011;8478;49.208;8.806;2022-08-19T08:30:21;15.53;;;14.33;;
2049;SDS011;8478;49.208;8.806;2022-08-19T08:32:48;15.50;;;14.40;;
2049;SDS011;8478;49.208;8.806;2022-08-19T08:35:16;13.50;;;12.50;;
2049;SDS011;8478;49.208;8.806;2022-08-19T08:37:44;15.07;;;13.63;;
2049;SDS011;8478;49.208;8.806;2022-08-19T08:40:16;14.10;;;13.00;;
2049;SDS011;8478;49.208;8.806;2022-08-19T08:42:49;13.47;;;12.40;;
2049;SDS011;8478;49.208;8.806;2022-08-19T08:45:27;14.17;;;13.17;;
2049;SDS011;8478;49.208;8.806;2022-08-19T08:47:55;14.00;;;13.00;;
2049;SDS011;8478;49.208;8.806;2022-08-19T08:50:27;13.07;;;11.97;;
2049;SDS011;8478;49.208;8.806;2022-08-19T08:53:00;14.03;;;13.03;;
2049;SDS011;8478;49.208;8.806;2022-08-19T08:55:29;14.30;;;13.20;;
2049;SDS011;8478;49.208;8.806;2022-08-19T08:58:00;14.93;;;13.80;;
2049;SDS011;8478;49.208;8.806;2022-08-19T09:00:43;13.40;;;12.40;;
2049;SDS011;8478;49.208;8.806;2022-08-19T09:03:18;13.70;;;12.67;;
2049;SDS011;8478;49.208;8.806;2022-08-19T09:06:02;13.57;;;12.57;;
2049;SDS011;8478;49.208;8.806;2022-08-19T09:16:34;14.20;;;13.20;;
2049;SDS011;8478;49.208;8.806;2022-08-19T09:19:02;11.73;;;10.93;;
2049;SDS011;8478;49.208;8.806;2022-08-19T09:21:30;13.33;;;12.23;;
2049;SDS011;8478;49.208;8.806;2022-08-19T09:23:57;12.10;;;11.20;;
2049;SDS011;8478;49.208;8.806;2022-08-19T09:26:23;13.83;;;12.70;;
2049;SDS011;8478;49.208;8.806;2022-08-19T09:28:51;12.37;;;11.37;;
2049;SDS011;8478;49.208;8.806;2022-08-19T09:31:22;13.83;;;12.73;;
2049;SDS011;8478;49.208;8.806;2022-08-19T09:33:49;12.30;;;11.00;;
2049;SDS011;8478;49.208;8.806;2022-08-19T09:36:17;11.43;;;10.53;;
2049;SDS011;8478;49.208;8.806;2022-08-19T09:38:45;11.10;;;10.27;;
2049;SDS011;8478;49.208;8.806;2022-08-19T09:41:15;11.77;;;10.87;;
2049;SDS011;8478;49.208;8.806;2022-08-19T09:43:44;11.67;;;10.77;;
2049;SDS011;8478;49.208;8.806;2022-08-19T09:46:11;12.33;;;11.43;;
2049;SDS011;8478;49.208;8.806;2022-08-19T09:48:38;11.23;;;10.23;;
2049;SDS011;8478;49.208;8.806;2022-08-19T09:51:06;11.13;;;10.27;;
2049;SDS011;8478;49.208;8.806;2022-08-19T09:53:33;12.63;;;11.53;;
2049;SDS011;8478;49.208;8.806;2022-08-19T09:56:00;11.07;;;10.17;;
2049;SDS011;8478;49.208;8.806;2022-08-19T09:58:26;11.10;;;10.17;;
2049;SDS011;8478;49.208;8.806;2022-08-19T10:00:54;10.57;;;9.67;;
2049;SDS011;8478;49.208;8.806;2022-08-19T10:03:21;9.53;;;8.83;;
2049;SDS011;8478;49.208;8.806;2022-08-19T10:05:47;10.37;;;9.47;;
2049;SDS011;8478;49.208;8.806;2022-08-19T10:08:13;10.37;;;9.67;;
2049;SDS011;8478;49.208;8.806;2022-08-19T10:10:48;10.77;;;10.00;;
2049;SDS011;8478;49.208;8.806;2022-08-19T10:13:15;11.70;;;10.83;;
2049;SDS011;8478;49.208;8.806;2022-08-19T10:15:43;10.60;;;9.90;;
2049;SDS011;8478;49.208;8.806;2022-08-19T10:18:09;11.27;;;10.47;;
2049;SDS011;8478;49.208;8.806;2022-08-19T10:20:35;10.27;;;9.57;;
2049;SDS011;8478;49.208;8.806;2022-08-19T10:23:01;12.10;;;11.17;;
2049;SDS011;8478;49.208;8.806;2022-08-19T10:25:28;10.93;;;10.00;;
2049;SDS011;8478;49.208;8.806;2022-08-19T10:27:53;10.93;;;10.13;;
2049;SDS011;8478;49.208;8.806;2022-08-19T10:30:19;10.63;;;9.93;;
2049;SDS011;8478;49.208;8.806;2022-08-19T10:32:46;10.10;;;9.30;;
2049;SDS011;8478;49.208;8.806;2022-08-19T10:35:13;9.37;;;8.77;;
2049;SDS011;8478;49.208;8.806;2022-08-19T10:37:39;9.37;;;8.70;;
2049;SDS011;8478;49.208;8.806;2022-08-19T10:40:05;10.13;;;9.33;;
2049;SDS011;8478;49.208;8.806;2022-08-19T10:42:33;8.77;;;8.17;;
2049;SDS011;8478;49.208;8.806;2022-08-19T10:45:00;9.60;;;8.90;;
2049;SDS011;8478;49.208;8.806;2022-08-19T10:47:26;7.77;;;7.27;;
2049;SDS011;8478;49.208;8.806;2022-08-19T10:49:52;8.67;;;7.97;;
2049;SDS011;8478;49.208;8.806;2022-08-19T10:52:39;9.00;;;8.37;;
2049;SDS011;8478;49.208;8.806;2022-08-19T10:55:06;8.00;;;7.40;;
2049;SDS011;8478;49.208;8.806;2022-08-19T10:57:51;7.37;;;6.77;;
2049;SDS011;8478;49.208;8.806;2022-08-19T11:00:18;7.83;;;7.23;;
2049;SDS011;8478;49.208;8.806;2022-08-19T11:02:44;7.33;;;6.83;;
2049;SDS011;8478;49.208;8.806;2022-08-19T11:05:11;8.33;;;7.83;;
2049;SDS011;8478;49.208;8.806;2022-08-19T11:07:37;7.70;;;7.17;;
2049;SDS011;8478;49.208;8.806;2022-08-19T11:10:04;7.33;;;6.67;;
2049;SDS011;8478;49.208;8.806;2022-08-19T11:12:30;7.67;;;7.17;;
2049;SDS011;8478;49.208;8.806;2022-08-19T11:14:57;7.70;;;7.20;;
2049;SDS011;8478;49.208;8.806;2022-08-19T11:17:23;8.20;;;7.60;;
2049;SDS011;8478;49.208;8.806;2022-08-19T11:19:49;7.70;;;7.10;;
2049;SDS011;8478;49.208;8.806;2022-08-19T11:22:15;7.47;;;6.90;;
2049;SDS011;8478;49.208;8.806;2022-08-19T11:24:42;8.17;;;7.57;;
2049;SDS011;8478;49.208;8.806;2022-08-19T11:27:09;8.43;;;7.73;;
2049;SDS011;8478;49.208;8.806;2022-08-19T11:29:37;7.60;;;6.90;;
2049;SDS011;8478;49.208;8.806;2022-08-19T11:32:05;8.40;;;7.63;;
2049;SDS011;8478;49.208;8.806;2022-08-19T11:34:33;7.80;;;7.13;;
2049;SDS011;8478;49.208;8.806;2022-08-19T11:37:00;7.93;;;7.23;;
2049;SDS011;8478;49.208;8.806;2022-08-19T11:39:27;8.17;;;7.50;;
2049;SDS011;8478;49.208;8.806;2022-08-19T11:41:55;8.07;;;7.50;;
2049;SDS011;8478;49.208;8.806;2022-08-19T11:44:22;8.07;;;7.57;;
2049;SDS011;8478;49.208;8.806;2022-08-19T11:46:48;8.67;;;8.07;;
2049;SDS011;8478;49.208;8.806;2022-08-19T11:49:14;7.10;;;6.50;;
2049;SDS011;8478;49.208;8.806;2022-08-19T11:51:41;8.80;;;8.00;;
2049;SDS011;8478;49.208;8.806;2022-08-19T11:54:11;8.23;;;7.63;;
2049;SDS011;8478;49.208;8.806;2022-08-19T11:56:38;7.20;;;6.60;;
2049;SDS011;8478;49.208;8.806;2022-08-19T11:59:05;8.17;;;7.67;;
2049;SDS011;8478;49.208;8.806;2022-08-19T12:01:32;7.70;;;7.20;;
2049;SDS011;8478;49.208;8.806;2022-08-19T12:03:58;8.20;;;7.60;;
2049;SDS011;8478;49.208;8.806;2022-08-19T12:06:26;7.10;;;6.60;;
2049;SDS011;8478;49.208;8.806;2022-08-19T12:08:58;7.90;;;7.40;;
2049;SDS011;8478;49.208;8.806;2022-08-19T12:11:25;8.13;;;7.50;;
2049;SDS011;8478;49.208;8.806;2022-08-19T12:13:52;8.37;;;7.87;;
2049;SDS011;8478;49.208;8.806;2022-08-19T12:16:21;7.77;;;7.27;;
2049;SDS011;8478;49.208;8.806;2022-08-19T12:18:51;8.23;;;7.63;;
2049;SDS011;8478;49.208;8.806;2022-08-19T12:21:19;9.13;;;8.33;;
2049;SDS011;8478;49.208;8.806;2022-08-19T12:23:48;8.20;;;7.70;;
2049;SDS011;8478;49.208;8.806;2022-08-19T12:26:15;9.73;;;9.00;;
2049;SDS011;8478;49.208;8.806;2022-08-19T12:28:42;8.87;;;8.17;;
2049;SDS011;8478;49.208;8.806;2022-08-19T12:31:08;9.33;;;8.67;;
2049;SDS011;8478;49.208;8.806;2022-08-19T12:33:37;9.00;;;8.40;;
2049;SDS011;8478;49.208;8.806;2022-08-19T12:36:04;9.50;;;8.90;;
2049;SDS011;8478;49.208;8.806;2022-08-19T12:38:31;10.30;;;9.60;;
2049;SDS011;8478;49.208;8.806;2022-08-19T12:40:59;9.67;;;8.97;;
2049;SDS011;8478;49.208;8.806;2022-08-19T12:43:25;11.70;;;10.80;;
2049;SDS011;8478;49.208;8.806;2022-08-19T12:45:51;9.40;;;8.80;;
2049;SDS011;8478;49.208;8.806;2022-08-19T12:48:17;10.37;;;9.67;;
2049;SDS011;8478;49.208;8.806;2022-08-19T12:50:43;10.23;;;9.53;;
2049;SDS011;8478;49.208;8.806;2022-08-19T12:53:13;10.17;;;9.50;;
2049;SDS011;8478;49.208;8.806;2022-08-19T12:55:39;10.20;;;9.50;;
2049;SDS011;8478;49.208;8.806;2022-08-19T12:58:05;10.60;;;9.90;;
2049;SDS011;8478;49.208;8.806;2022-08-19T13:00:31;11.37;;;10.57;;
2049;SDS011;8478;49.208;8.806;2022-08-19T13:02:57;10.97;;;10.17;;
2049;SDS011;8478;49.208;8.806;2022-08-19T13:05:25;9.83;;;9.13;;
2049;SDS011;8478;49.208;8.806;2022-08-19T13:07:54;11.23;;;10.17;;
2049;SDS011;8478;49.208;8.806;2022-08-19T13:10:21;11.63;;;10.63;;
2049;SDS011;8478;49.208;8.806;2022-08-19T13:12:50;10.93;;;9.80;;
2049;SDS011;8478;49.208;8.806;2022-08-19T13:15:17;11.37;;;10.37;;
2049;SDS011;8478;49.208;8.806;2022-08-19T13:17:47;11.40;;;10.60;;
2049;SDS011;8478;49.208;8.806;2022-08-19T13:20:15;10.70;;;9.80;;
2049;SDS011;8478;49.208;8.806;2022-08-19T13:22:43;11.30;;;10.50;;
2049;SDS011;8478;49.208;8.806;2022-08-19T13:25:09;9.80;;;9.10;;
2049;SDS011;8478;49.208;8.806;2022-08-19T13:27:37;10.40;;;9.70;;
2049;SDS011;8478;49.208;8.806;2022-08-19T13:30:04;10.30;;;9.60;;
2049;SDS011;8478;49.208;8.806;2022-08-19T13:32:51;11.00;;;10.20;;
2049;SDS011;8478;49.208;8.806;2022-08-19T13:35:35;10.40;;;9.70;;
2049;SDS011;8478;49.208;8.806;2022-08-19T13:38:01;9.70;;;9.10;;
2049;SDS011;8478;49.208;8.806;2022-08-19T13:40:29;10.33;;;9.73;;
2049;SDS011;8478;49.208;8.806;2022-08-19T13:42:58;10.70;;;9.90;;
2049;SDS011;8478;49.208;8.806;2022-08-19T13:45:26;10.83;;;10.13;;
2049;SDS011;8478;49.208;8.806;2022-08-19T13:47:54;10.73;;;9.83;;
2049;SDS011;8478;49.208;8.806;2022-08-19T13:50:22;10.83;;;10.13;;
2049;SDS011;8478;49.208;8.806;2022-08-19T13:52:50;10.73;;;10.13;;
2049;SDS011;8478;49.208;8.806;2022-08-19T13:55:16;9.63;;;9.00;;
2049;SDS011;8478;49.208;8.806;2022-08-19T13:57:42;10.37;;;9.60;;
2049;SDS011;8478;49.208;8.806;2022-08-19T14:00:09;9.93;;;9.33;;
2049;SDS011;8478;49.208;8.806;2022-08-19T14:02:40;9.93;;;9.33;;
2049;SDS011;8478;49.208;8.806;2022-08-19T14:05:07;10.20;;;9.60;;
2049;SDS011;8478;49.208;8.806;2022-08-19T14:07:34;10.30;;;9.60;;
2049;SDS011;8478;49.208;8.806;2022-08-19T14:10:01;9.70;;;9.10;;
2049;SDS011;8478;49.208;8.806;2022-08-19T14:12:27;9.50;;;8.90;;
2049;SDS011;8478;49.208;8.806;2022-08-19T14:14:53;9.93;;;9.23;;
2049;SDS011;8478;49.208;8.806;2022-08-19T14:17:18;9.30;;;8.70;;
2049;SDS011;8478;49.208;8.806;2022-08-19T14:19:44;7.63;;;7.13;;
2049;SDS011;8478;49.208;8.806;2022-08-19T14:22:10;8.70;;;8.20;;
2049;SDS011;8478;49.208;8.806;2022-08-19T14:24:38;9.23;;;8.63;;
2049;SDS011;8478;49.208;8.806;2022-08-19T14:27:05;8.40;;;7.80;;
2049;SDS011;8478;49.208;8.806;2022-08-19T14:29:31;7.10;;;6.70;;
2049;SDS011;8478;49.208;8.806;2022-08-19T14:31:57;8.20;;;7.70;;
2049;SDS011;8478;49.208;8.806;2022-08-19T14:34:24;7.80;;;7.30;;
2049;SDS011;8478;49.208;8.806;2022-08-19T14:36:51;7.83;;;7.30;;
2049;SDS011;8478;49.208;8.806;2022-08-19T14:39:17;7.40;;;7.00;;
2049;SDS011;8478;49.208;8.806;2022-08-19T14:41:43;7.53;;;7.03;;
2049;SDS011;8478;49.208;8.806;2022-08-19T14:44:10;8.20;;;7.60;;
2049;SDS011;8478;49.208;8.806;2022-08-19T14:46:38;7.30;;;6.80;;
2049;SDS011;8478;49.208;8.806;2022-08-19T14:49:04;7.37;;;6.93;;
2049;SDS011;8478;49.208;8.806;2022-08-19T14:51:30;7.13;;;6.63;;
2049;SDS011;8478;49.208;8.806;2022-08-19T14:53:56;8.00;;;7.47;;
2049;SDS011;8478;49.208;8.806;2022-08-19T14:56:23;8.00;;;7.40;;
2049;SDS011;8478;49.208;8.806;2022-08-19T14:58:51;8.30;;;7.50;;
2049;SDS011;8478;49.208;8.806;2022-08-19T15:01:18;7.33;;;6.83;;
2049;SDS011;8478;49.208;8.806;2022-08-19T15:03:45;6.97;;;6.37;;
2049;SDS011;8478;49.208;8.806;2022-08-19T15:06:12;7.33;;;6.67;;
2049;SDS011;8478;49.208;8.806;2022-08-19T15:08:38;6.87;;;6.47;;